Time;durP1;ratioP1;P1;durP2;ratioP2;P2;SDS_P1;SDS_P2;PMS_P1;PMS_P2;Temp;Humidity;BMP_temperature;BMP_pressure;BME280_temperature;BME280_humidity;BME280_pressure;Samples;Min_cycle;Max_cycle;Signal;HPM_P1;HPM_P2
2022/11/15 00:00:21;;;;;;;8.13;5.23;;;;;;;12.33;59.49;97277.13;5032573;28;20198;-71
2022/11/15 00:02:47;;;;;;;8.43;5.27;;;;;;;12.37;58.99;97265.31;5037384;28;20266;-70
2022/11/15 00:05:12;;;;;;;6.77;5.27;;;;;;;12.38;58.66;97264.34;5031411;28;20256;-70
2022/11/15 00:07:37;;;;;;;6.77;4.40;;;;;;;12.40;58.89;97265.81;5032918;28;20180;-71
2022/11/15 00:10:03;;;;;;;10.10;4.83;;;;;;;12.42;59.28;97263.00;5037423;28;20195;-71
2022/11/15 00:12:29;;;;;;;7.63;4.50;;;;;;;12.36;59.68;97264.47;5026900;28;20180;-70
2022/11/15 00:14:54;;;;;;;5.50;4.97;;;;;;;12.29;59.17;97260.88;5038507;28;20800;-71
2022/11/15 00:17:20;;;;;;;10.67;4.90;;;;;;;12.28;60.04;97259.22;5028753;28;20286;-70
2022/11/15 00:19:45;;;;;;;5.77;4.13;;;;;;;12.25;59.84;97263.00;5026810;28;20180;-71
2022/11/15 00:22:11;;;;;;;5.50;4.80;;;;;;;12.27;60.18;97255.78;5043089;28;20195;-71
2022/11/15 00:24:36;;;;;;;7.13;5.10;;;;;;;12.25;60.09;97246.41;5032197;28;20291;-71
2022/11/15 00:27:02;;;;;;;6.47;4.30;;;;;;;12.25;60.47;97246.41;5030236;28;20655;-71
2022/11/15 00:29:27;;;;;;;7.33;4.23;;;;;;;12.21;60.66;97245.09;5031807;28;20234;-71
2022/11/15 00:31:53;;;;;;;16.00;4.40;;;;;;;12.23;60.99;97245.72;5032058;28;20191;-71
2022/11/15 00:34:18;;;;;;;4.53;3.77;;;;;;;12.19;60.69;97241.81;5039160;28;20286;-71
2022/11/15 00:36:44;;;;;;;7.00;3.50;;;;;;;12.16;60.54;97235.06;5027475;28;20270;-71
2022/11/15 00:39:09;;;;;;;4.60;4.03;;;;;;;12.21;60.19;97234.59;5040947;28;20725;-71
2022/11/15 00:41:35;;;;;;;8.20;4.83;;;;;;;12.17;60.20;97226.19;5033943;28;20643;-71
2022/11/15 00:44:00;;;;;;;6.43;4.20;;;;;;;12.25;59.66;97231.47;5031778;28;20267;-71
2022/11/15 00:46:26;;;;;;;4.90;4.10;;;;;;;12.24;59.32;97229.00;5029451;28;20653;-71
2022/11/15 00:48:51;;;;;;;11.83;4.60;;;;;;;12.26;59.16;97229.66;5036187;28;20187;-71
2022/11/15 00:51:16;;;;;;;5.30;4.43;;;;;;;12.24;59.48;97229.00;5030174;28;20184;-73
2022/11/15 00:53:42;;;;;;;7.70;5.30;;;;;;;12.26;59.80;97217.34;5030178;28;20275;-72
2022/11/15 00:56:07;;;;;;;5.77;4.20;;;;;;;12.21;59.87;97218.81;5031156;28;20663;-71
2022/11/15 00:58:33;;;;;;;4.27;3.70;;;;;;;12.16;60.31;97211.41;5029499;28;20253;-71
2022/11/15 01:01:09;;;;;;;5.13;4.20;;;;;;;12.13;60.50;97212.56;5031089;28;20184;-71
2022/11/15 01:03:36;;;;;;;8.60;4.90;;;;;;;12.19;60.19;97212.91;5015381;28;20184;-70
2022/11/15 01:06:02;;;;;;;5.03;4.37;;;;;;;12.22;59.84;97213.41;5031731;28;20461;-70
2022/11/15 01:08:27;;;;;;;7.80;4.20;;;;;;;12.11;60.40;97208.47;5029211;28;20422;-70
2022/11/15 01:10:53;;;;;;;5.43;4.10;;;;;;;12.09;60.67;97207.78;5029768;28;20521;-71
2022/11/15 01:13:18;;;;;;;3.73;3.20;;;;;;;12.10;60.81;97207.63;5030863;28;20195;-71
2022/11/15 01:15:44;;;;;;;5.80;4.07;;;;;;;12.06;60.67;97208.94;5031190;28;20204;-71
2022/11/15 01:18:09;;;;;;;5.40;3.70;;;;;;;11.99;60.88;97205.31;5026005;28;20235;-70
2022/11/15 01:20:40;;;;;;;10.67;4.30;;;;;;;11.94;60.91;97202.31;5030918;28;20659;-70
2022/11/15 01:23:05;;;;;;;5.97;3.70;;;;;;;11.93;60.79;97211.19;5030940;28;20281;-70
2022/11/15 01:25:31;;;;;;;7.83;4.10;;;;;;;11.94;60.53;97207.59;5037990;28;20972;-71
2022/11/15 01:27:56;;;;;;;5.00;3.80;;;;;;;11.92;60.55;97206.91;5030134;28;20274;-70
2022/11/15 01:30:22;;;;;;;5.57;3.60;;;;;;;11.86;60.89;97200.50;5030233;28;20184;-71
2022/11/15 01:32:47;;;;;;;6.37;4.30;;;;;;;11.82;60.91;97204.41;5029439;28;20322;-71
2022/11/15 01:35:13;;;;;;;5.27;3.97;;;;;;;11.75;61.08;97198.97;5030402;28;20282;-72
2022/11/15 01:37:39;;;;;;;4.67;3.80;;;;;;;11.74;60.99;97196.53;5030653;28;20251;-71
2022/11/15 01:40:05;;;;;;;5.97;4.07;;;;;;;11.73;61.04;97198.31;5043059;28;20916;-70
2022/11/15 01:42:30;;;;;;;5.43;3.87;;;;;;;11.73;60.88;97198.31;5030605;28;20282;-72
2022/11/15 01:44:56;;;;;;;3.97;3.57;;;;;;;11.59;61.10;97196.31;5027992;28;20738;-72
2022/11/15 01:47:30;;;;;;;4.90;3.23;;;;;;;11.53;61.14;97189.88;5029753;28;20280;-71
2022/11/15 01:50:03;;;;;;;4.80;3.60;;;;;;;11.56;61.08;97194.00;5024880;28;20655;-71
2022/11/15 01:52:30;;;;;;;3.90;3.57;;;;;;;11.53;61.12;97189.88;5030258;28;20778;-71
2022/11/15 01:55:12;;;;;;;4.53;3.37;;;;;;;11.50;60.93;97190.22;5030628;28;20533;-71
2022/11/15 01:57:38;;;;;;;7.60;3.63;;;;;;;11.38;61.04;97189.66;5024994;28;20994;-71
2022/11/15 02:00:05;;;;;;;4.53;3.47;;;;;;;11.43;61.18;97184.78;5029824;28;20430;-70
2022/11/15 02:02:31;;;;;;;5.20;3.83;;;;;;;11.42;60.88;97188.38;5041268;28;20430;-71
2022/11/15 02:04:56;;;;;;;4.93;3.60;;;;;;;11.39;61.35;97183.44;5012638;28;20541;-71
2022/11/15 02:07:22;;;;;;;5.63;3.47;;;;;;;11.37;61.31;97185.41;5029286;28;20790;-70
2022/11/15 02:09:48;;;;;;;4.50;3.80;;;;;;;11.34;61.10;97176.06;5030524;28;20186;-70
2022/11/15 02:12:19;;;;;;;3.80;3.40;;;;;;;11.34;61.22;97183.13;5029075;28;20184;-71
2022/11/15 02:14:48;;;;;;;6.00;3.60;;;;;;;11.29;61.56;97174.88;5020185;28;20223;-70
2022/11/15 02:17:19;;;;;;;6.53;3.77;;;;;;;11.22;61.80;97175.50;5027688;28;20466;-71
2022/11/15 02:19:56;;;;;;;5.83;3.73;;;;;;;11.23;61.73;97173.72;5023544;28;20492;-70
2022/11/15 02:22:34;;;;;;;3.70;3.33;;;;;;;11.21;61.70;97171.22;5028913;28;20529;-70
2022/11/15 02:25:17;;;;;;;4.77;3.60;;;;;;;11.27;61.54;97164.56;5029454;28;21006;-71
2022/11/15 02:28:03;;;;;;;6.47;3.97;;;;;;;11.22;61.34;97162.38;5028240;28;20407;-71
2022/11/15 02:30:49;;;;;;;7.23;3.63;;;;;;;11.26;61.44;97154.19;5032570;28;20424;-70
2022/11/15 02:33:33;;;;;;;10.20;4.17;;;;;;;11.25;61.26;97158.63;5030587;28;20429;-70
2022/11/15 02:36:11;;;;;;;3.63;3.33;;;;;;;11.23;61.41;97155.34;5026315;28;20446;-69
2022/11/15 02:38:54;;;;;;;4.10;3.40;;;;;;;11.21;61.48;97152.88;5032125;28;20469;-70
2022/11/15 02:41:34;;;;;;;4.27;3.70;;;;;;;11.24;61.43;97149.13;5035353;28;20437;-71
2022/11/15 02:44:03;;;;;;;4.80;3.53;;;;;;;11.22;61.83;97151.06;5027176;28;20427;-70
2022/11/15 02:47:14;;;;;;;9.43;3.20;;;;;;;11.26;61.47;97141.91;5016995;28;20426;-71
2022/11/15 02:49:42;;;;;;;4.20;3.30;;;;;;;11.27;61.43;97142.72;5027565;28;20419;-70
2022/11/15 02:52:07;;;;;;;3.93;2.90;;;;;;;11.18;61.80;97144.50;5030180;28;20443;-71
2022/11/15 02:54:33;;;;;;;3.53;3.20;;;;;;;11.18;62.02;97134.00;5028719;28;20533;-71
2022/11/15 02:57:04;;;;;;;4.93;3.00;;;;;;;11.19;61.92;97128.63;5029444;28;20183;-71
2022/11/15 02:59:49;;;;;;;6.23;3.30;;;;;;;11.29;62.03;97130.28;5039599;28;20418;-70
2022/11/15 03:02:40;;;;;;;5.50;4.20;;;;;;;11.24;61.66;97125.50;5031844;28;20422;-69
2022/11/15 03:05:21;;;;;;;4.30;3.07;;;;;;;11.29;61.85;97130.28;5028412;28;20442;-70
2022/11/15 03:08:10;;;;;;;5.07;3.40;;;;;;;11.24;61.36;97128.13;5030034;28;20461;-70
2022/11/15 03:10:45;;;;;;;4.30;3.00;;;;;;;11.28;61.83;97126.81;5030000;28;20419;-70
2022/11/15 03:13:32;;;;;;;6.17;3.57;;;;;;;11.22;61.96;97124.84;5027261;28;20421;-70
2022/11/15 03:16:15;;;;;;;3.83;3.30;;;;;;;11.21;62.06;97124.00;5023744;28;20445;-71
2022/11/15 03:18:50;;;;;;;4.47;3.17;;;;;;;11.25;61.71;97118.44;5007582;28;20829;-69
2022/11/15 03:21:16;;;;;;;4.67;3.17;;;;;;;11.21;61.53;97123.19;5028280;28;20433;-69
2022/11/15 03:23:41;;;;;;;5.07;3.33;;;;;;;11.18;61.89;97116.47;5029947;28;20426;-71
2022/11/15 03:26:09;;;;;;;3.30;2.77;;;;;;;11.15;61.93;97108.91;5033137;28;20453;-69
2022/11/15 03:28:53;;;;;;;4.60;3.57;;;;;;;11.12;62.15;97109.22;5031276;28;20183;-71
2022/11/15 03:34:06;;;;;;;6.83;4.20;;;;;;;11.03;62.53;97110.19;5014548;28;20434;-70
2022/11/15 03:36:33;;;;;;;4.07;3.60;;;;;;;11.05;62.50;97102.97;5025042;28;20423;-69
2022/11/15 03:39:02;;;;;;;7.20;3.07;;;;;;;11.08;62.27;97102.66;5032818;28;20496;-70
2022/11/15 03:41:34;;;;;;;5.10;3.80;;;;;;;11.12;62.44;97097.94;5037363;28;20808;-70
2022/11/15 03:44:10;;;;;;;4.57;3.50;;;;;;;11.10;62.15;97098.06;5029582;28;20794;-71
2022/11/15 03:46:40;;;;;;;5.27;3.90;;;;;;;11.09;62.28;97095.63;5023662;28;20426;-70
2022/11/15 03:49:10;;;;;;;6.10;4.33;;;;;;;11.08;62.43;97097.44;5026845;28;20434;-69
2022/11/15 03:51:35;;;;;;;4.87;3.50;;;;;;;11.04;62.87;97093.47;5031635;28;20910;-70
2022/11/15 03:54:03;;;;;;;4.00;3.27;;;;;;;11.04;62.56;97091.66;5032692;28;20448;-71
2022/11/15 03:56:29;;;;;;;3.80;3.27;;;;;;;11.06;62.50;97088.88;5024022;28;20180;-69
2022/11/15 03:58:54;;;;;;;4.17;3.40;;;;;;;11.05;62.92;97087.25;5032231;28;20545;-70
2022/11/15 04:01:20;;;;;;;8.83;4.13;;;;;;;11.11;62.64;97096.28;5031230;28;20181;-70
2022/11/15 04:03:45;;;;;;;4.20;3.10;;;;;;;11.08;62.89;97084.31;5036978;28;20187;-70
2022/11/15 04:06:11;;;;;;;5.47;3.67;;;;;;;11.06;62.97;97086.25;5034429;28;20290;-69
2022/11/15 04:08:36;;;;;;;6.07;3.70;;;;;;;11.16;62.78;97083.50;5030420;28;20179;-69
2022/11/15 04:11:01;;;;;;;7.43;4.10;;;;;;;11.21;62.55;97082.03;5044432;28;20218;-70
2022/11/15 04:13:27;;;;;;;3.83;3.53;;;;;;;11.12;62.82;97083.00;5034550;28;20241;-69
2022/11/15 04:15:52;;;;;;;8.13;3.57;;;;;;;11.03;63.10;97078.72;5036442;28;20203;-69
2022/11/15 04:18:18;;;;;;;4.60;3.60;;;;;;;11.15;63.03;97087.94;5027421;28;20679;-71
2022/11/15 04:26:14;;;;;;;4.40;3.70;;;;;;;11.31;62.30;97091.59;5026227;28;20490;-69
2022/11/15 04:29:34;;;;;;;8.77;3.40;;;;;;;11.33;62.18;97085.19;5023817;28;20425;-69
2022/11/15 04:31:26;;;;;;;3.37;3.07;;;;;;;11.34;62.39;97081.59;5031058;28;20426;-69
2022/11/15 04:33:52;;;;;;;5.63;2.70;;;;;;;11.27;62.65;97085.00;5021596;28;20464;-69
2022/11/15 04:39:01;;;;;;;4.70;3.00;;;;;;;11.35;62.39;97067.50;5042117;28;20462;-70
2022/11/15 04:41:27;;;;;;;3.80;3.00;;;;;;;11.32;62.31;97065.19;5048367;28;20433;-70
2022/11/15 04:43:52;;;;;;;7.87;4.80;;;;;;;11.30;62.20;97061.09;5044641;28;20655;-69
2022/11/15 04:46:17;;;;;;;7.10;5.57;;;;;;;11.26;62.79;97072.88;5028660;28;20556;-70
2022/11/15 04:48:43;;;;;;;8.83;5.90;;;;;;;11.25;62.57;97065.97;5010299;28;20244;-71
2022/11/15 04:51:08;;;;;;;7.97;5.67;;;;;;;11.19;62.83;97068.28;5029569;28;20282;-70
2022/11/15 04:53:34;;;;;;;6.77;4.30;;;;;;;11.19;62.83;97068.28;5041426;28;20270;-70
2022/11/15 04:55:59;;;;;;;7.30;4.60;;;;;;;11.20;62.44;97071.72;5042062;28;20290;-71
2022/11/15 04:58:25;;;;;;;7.70;4.07;;;;;;;11.18;62.72;97071.88;5041833;28;20290;-70
2022/11/15 05:00:50;;;;;;;5.43;4.00;;;;;;;11.18;62.80;97064.00;5045368;28;20188;-70
2022/11/15 05:06:00;;;;;;;9.30;3.73;;;;;;;11.27;62.52;97051.75;5029719;28;20218;-71
2022/11/15 05:08:25;;;;;;;10.40;4.37;;;;;;;11.26;62.39;97052.72;5030738;28;20508;-71
2022/11/15 05:10:51;;;;;;;4.60;3.63;;;;;;;11.26;62.33;97049.25;5049005;28;20186;-71
2022/11/15 05:13:17;;;;;;;4.80;3.80;;;;;;;11.22;62.52;97046.94;5036688;28;20271;-70
2022/11/15 05:15:42;;;;;;;3.90;3.50;;;;;;;11.18;62.40;97045.66;5039243;28;20203;-70
2022/11/15 05:18:08;;;;;;;5.00;3.80;;;;;;;11.19;62.35;97042.06;5041989;28;20707;-70
2022/11/15 05:20:33;;;;;;;4.60;3.60;;;;;;;11.21;62.64;97044.50;5047989;28;20214;-70
2022/11/15 05:22:58;;;;;;;4.90;3.23;;;;;;;11.27;62.36;97045.66;5020088;28;20214;-69
2022/11/15 05:25:24;;;;;;;7.87;3.03;;;;;;;11.29;62.46;97052.38;5033791;28;20258;-70
2022/11/15 05:27:50;;;;;;;5.00;3.40;;;;;;;11.30;62.18;97042.72;5044897;28;20603;-69
2022/11/15 05:30:15;;;;;;;7.00;3.10;;;;;;;11.27;61.99;97043.03;5040104;28;20180;-70
2022/11/15 05:32:41;;;;;;;5.37;3.97;;;;;;;11.24;62.00;97043.34;5025732;28;20665;-70
2022/11/15 05:35:08;;;;;;;5.60;3.30;;;;;;;11.27;62.38;97038.63;5040263;28;20315;-70
2022/11/15 05:37:34;;;;;;;4.20;3.60;;;;;;;11.24;62.05;97030.22;5035973;28;20207;-71
2022/11/15 05:40:00;;;;;;;3.30;3.00;;;;;;;11.21;62.63;97034.00;5039214;28;20418;-70
2022/11/15 05:42:26;;;;;;;4.87;3.67;;;;;;;11.21;62.45;97031.38;5019100;28;20253;-71
2022/11/15 05:44:52;;;;;;;7.27;3.53;;;;;;;11.22;62.40;97023.34;5013704;28;20651;-72
2022/11/15 05:47:23;;;;;;;8.33;3.13;;;;;;;11.20;62.65;97025.34;5021939;28;20494;-71
2022/11/15 05:49:49;;;;;;;5.00;3.63;;;;;;;11.25;62.38;97026.63;5012566;28;20530;-71
2022/11/15 05:52:17;;;;;;;11.03;4.23;;;;;;;11.22;62.57;97023.34;5016511;28;20450;-71
2022/11/15 05:54:42;;;;;;;5.70;4.60;;;;;;;11.23;62.88;97026.81;5017749;28;20443;-71
2022/11/15 05:57:08;;;;;;;4.90;4.27;;;;;;;11.24;62.78;97017.13;5013006;28;20518;-71
2022/11/15 05:59:34;;;;;;;5.67;3.93;;;;;;;11.26;62.57;97018.63;5020898;28;20215;-71
2022/11/15 06:01:59;;;;;;;4.63;3.57;;;;;;;11.26;62.77;97017.78;5020746;28;20186;-71
2022/11/15 06:04:25;;;;;;;6.70;3.87;;;;;;;11.31;62.82;97018.13;5025350;28;20449;-70
2022/11/15 06:06:50;;;;;;;6.27;3.30;;;;;;;11.34;62.41;97023.88;5017624;28;20841;-72
2022/11/15 06:09:16;;;;;;;6.30;3.90;;;;;;;11.41;62.10;97018.81;5019171;28;20211;-70
2022/11/15 06:11:41;;;;;;;4.67;3.30;;;;;;;11.45;61.61;97025.38;5013756;28;20546;-71
2022/11/15 06:14:07;;;;;;;5.90;3.90;;;;;;;11.47;61.31;97020.75;5018065;28;20207;-71
2022/11/15 06:16:32;;;;;;;5.13;3.40;;;;;;;11.50;61.34;97020.44;5017233;28;20267;-71
2022/11/15 06:18:58;;;;;;;5.13;3.60;;;;;;;11.53;61.12;97021.91;5014123;28;20283;-71
2022/11/15 06:21:23;;;;;;;5.40;3.40;;;;;;;11.50;61.12;97028.31;5020510;28;20184;-71
2022/11/15 06:23:49;;;;;;;4.57;3.00;;;;;;;11.44;61.40;97036.84;5020061;28;20230;-72
2022/11/15 06:26:14;;;;;;;4.43;3.70;;;;;;;11.45;61.55;97041.13;5019536;28;20252;-72
2022/11/15 06:28:40;;;;;;;6.50;4.10;;;;;;;11.48;61.36;97032.91;5016790;28;20176;-71
2022/11/15 06:31:07;;;;;;;6.40;3.80;;;;;;;11.55;60.61;97034.88;5014922;28;20284;-70
2022/11/15 06:33:33;;;;;;;4.93;3.63;;;;;;;11.55;60.63;97032.28;5014145;28;20214;-71
2022/11/15 06:36:09;;;;;;;8.40;4.20;;;;;;;11.56;60.75;97031.28;5011850;28;20518;-70
2022/11/15 06:38:34;;;;;;;6.73;4.50;;;;;;;11.55;60.71;97037.50;5018494;28;20227;-69
2022/11/15 06:41:08;;;;;;;9.40;4.80;;;;;;;11.56;60.76;97041.78;5020459;28;20908;-71
2022/11/15 06:43:34;;;;;;;8.90;4.67;;;;;;;11.54;60.66;97039.31;5016707;28;20553;-72
2022/11/15 06:46:00;;;;;;;6.70;4.43;;;;;;;11.50;61.06;97049.31;5004928;28;20459;-71
2022/11/15 06:48:26;;;;;;;7.70;5.00;;;;;;;11.51;60.95;97044.91;4997232;28;20183;-72
2022/11/15 06:50:53;;;;;;;7.23;4.33;;;;;;;11.55;61.22;97048.00;5013843;28;20787;-71
2022/11/15 06:53:18;;;;;;;18.40;5.40;;;;;;;11.58;61.34;97050.31;5014305;28;20470;-71
2022/11/15 06:55:44;;;;;;;6.97;4.87;;;;;;;11.62;60.83;97056.88;5022686;28;20526;-71
2022/11/15 06:58:09;;;;;;;6.50;4.73;;;;;;;11.61;60.55;97049.97;5019812;28;20690;-72
2022/11/15 07:00:35;;;;;;;9.73;4.60;;;;;;;11.62;60.35;97054.25;5028950;28;20627;-71
2022/11/15 07:03:00;;;;;;;6.73;4.50;;;;;;;11.63;60.46;97048.00;5030899;28;20196;-70
2022/11/15 07:05:26;;;;;;;7.93;4.57;;;;;;;11.60;60.70;97049.16;5046048;28;20252;-71
2022/11/15 07:07:55;;;;;;;9.87;5.50;;;;;;;11.60;60.50;97053.56;5038485;28;20176;-71
2022/11/15 07:10:21;;;;;;;12.53;4.97;;;;;;;11.62;60.93;97056.88;5027553;28;20184;-71
2022/11/15 07:12:48;;;;;;;9.67;5.10;;;;;;;11.66;60.79;97058.19;5030358;28;20514;-70
2022/11/15 07:15:15;;;;;;;7.20;4.43;;;;;;;11.66;60.88;97050.31;5018820;28;21013;-70
2022/11/15 07:17:40;;;;;;;6.10;4.70;;;;;;;11.70;60.79;97056.06;5026053;28;20491;-72
2022/11/15 07:20:06;;;;;;;9.57;5.03;;;;;;;11.69;60.80;97057.88;5025591;28;20450;-71
2022/11/15 07:22:32;;;;;;;8.27;5.47;;;;;;;11.72;60.71;97061.97;5033803;28;20179;-72
2022/11/15 07:24:57;;;;;;;10.90;5.60;;;;;;;11.77;60.74;97051.81;5018535;28;20447;-73
2022/11/15 07:27:23;;;;;;;9.63;5.20;;;;;;;11.79;60.66;97048.03;5032737;28;20562;-72
2022/11/15 07:29:49;;;;;;;8.87;5.00;;;;;;;11.84;61.07;97048.34;5032790;28;20633;-70
2022/11/15 07:32:14;;;;;;;13.40;5.37;;;;;;;11.90;61.11;97052.16;5041705;28;20277;-71
2022/11/15 07:34:40;;;;;;;8.03;5.30;;;;;;;12.02;61.18;97050.03;5038055;28;20492;-71
2022/11/15 07:37:06;;;;;;;11.93;5.87;;;;;;;12.14;60.91;97046.06;5023857;28;20176;-71
2022/11/15 07:39:31;;;;;;;14.00;10.80;;;;;;;12.26;60.92;97043.09;5035071;28;20430;-71
2022/11/15 07:44:41;;;;;;;8.30;6.70;;;;;;;12.67;60.62;97034.28;5026669;28;20287;-72
2022/11/15 07:47:06;;;;;;;14.57;7.50;;;;;;;12.78;60.08;97025.22;5029900;28;20417;-71
2022/11/15 07:49:32;;;;;;;9.07;5.87;;;;;;;12.86;59.37;97027.78;5029696;28;20238;-72
2022/11/15 07:51:57;;;;;;;8.03;5.60;;;;;;;12.96;59.29;97023.16;5038147;28;20585;-73
2022/11/15 07:54:23;;;;;;;7.97;5.50;;;;;;;13.08;58.96;97025.41;5038783;28;20215;-72
2022/11/15 07:56:48;;;;;;;14.40;5.47;;;;;;;13.18;58.53;97024.19;5036613;28;20672;-73
2022/11/15 07:59:14;;;;;;;6.83;5.13;;;;;;;13.29;58.12;97022.97;5030189;28;20212;-71
2022/11/15 08:01:39;;;;;;;9.60;5.60;;;;;;;13.39;58.12;97032.47;5029031;28;20665;-71
2022/11/15 08:04:04;;;;;;;8.07;4.97;;;;;;;13.46;58.35;97023.72;5026096;28;20267;-71
2022/11/15 08:06:30;;;;;;;13.70;5.27;;;;;;;13.57;57.96;97022.50;5039544;28;20305;-71
2022/11/15 08:08:55;;;;;;;6.03;5.00;;;;;;;13.71;57.82;97020.91;5029775;28;20180;-72
2022/11/15 08:11:21;;;;;;;6.23;4.47;;;;;;;13.77;57.58;97024.66;5034020;28;20825;-72
2022/11/15 08:13:46;;;;;;;6.47;4.67;;;;;;;13.87;57.10;97019.16;5020184;28;20593;-73
2022/11/15 08:16:12;;;;;;;8.37;5.27;;;;;;;14.09;56.60;97022.75;5031326;28;20215;-73
2022/11/15 08:18:37;;;;;;;5.70;4.80;;;;;;;14.15;56.71;97019.38;5024741;28;20254;-72
2022/11/15 08:21:04;;;;;;;11.83;5.80;;;;;;;14.23;56.38;97018.47;5044792;28;20197;-72
2022/11/15 08:23:29;;;;;;;6.30;4.90;;;;;;;14.45;56.23;97003.59;5042036;28;20192;-73
2022/11/15 08:26:03;;;;;;;5.17;4.67;;;;;;;14.80;55.22;97003.88;5042009;28;20456;-74
2022/11/15 08:28:30;;;;;;;7.47;4.90;;;;;;;15.04;54.46;97000.13;5038675;28;20183;-72
2022/11/15 08:30:55;;;;;;;8.70;5.57;;;;;;;15.23;53.99;97002.34;5043392;28;20422;-71
2022/11/15 08:33:21;;;;;;;8.37;5.57;;;;;;;15.38;53.67;96997.00;5045573;28;20437;-74
2022/11/15 08:35:46;;;;;;;8.03;7.23;;;;;;;15.40;52.76;96995.78;5044138;28;20211;-72
2022/11/15 08:38:12;;;;;;;8.87;6.53;;;;;;;15.58;52.84;96997.19;5037473;28;20203;-73
2022/11/15 08:40:37;;;;;;;11.60;7.00;;;;;;;15.67;52.56;96988.13;5038090;28;20190;-72
2022/11/15 08:43:03;;;;;;;9.60;5.97;;;;;;;15.91;51.31;96989.59;5046218;28;20276;-73
2022/11/15 08:45:34;;;;;;;7.40;3.80;;;;;;;16.20;51.12;96977.16;5024847;28;20719;-73
2022/11/15 08:48:01;;;;;;;3.87;3.50;;;;;;;16.39;49.63;96975.66;5045652;28;20187;-72
2022/11/15 08:50:26;;;;;;;10.13;3.77;;;;;;;16.58;49.45;96968.03;5046216;28;20429;-72
2022/11/15 08:52:52;;;;;;;6.50;2.93;;;;;;;16.69;48.57;96964.81;5045070;28;20414;-73
2022/11/15 08:55:17;;;;;;;3.60;3.10;;;;;;;16.83;48.63;96964.88;5048281;28;20678;-72
2022/11/15 08:57:43;;;;;;;4.10;3.10;;;;;;;16.90;47.45;96965.69;5029032;28;20208;-74
2022/11/15 09:00:09;;;;;;;5.07;2.60;;;;;;;16.98;47.48;96970.03;5035992;28;20191;-72
2022/11/15 09:02:37;;;;;;;3.53;2.70;;;;;;;17.19;48.00;96961.97;5033510;28;20180;-72
2022/11/15 09:05:03;;;;;;;3.27;2.40;;;;;;;17.34;46.98;96966.25;5036464;28;20475;-72
2022/11/15 09:07:29;;;;;;;4.00;3.00;;;;;;;17.45;47.60;96970.16;5043651;28;21159;-72
2022/11/15 09:09:55;;;;;;;5.13;2.60;;;;;;;17.46;46.37;96969.94;5046224;28;20203;-72
2022/11/15 09:12:20;;;;;;;3.13;2.80;;;;;;;17.36;46.07;96966.88;5040794;28;20521;-73
2022/11/15 09:14:46;;;;;;;5.77;2.67;;;;;;;17.44;46.20;96971.16;5032153;28;20208;-73
2022/11/15 09:17:11;;;;;;;5.03;3.67;;;;;;;17.45;46.08;96965.66;5040123;28;20570;-73
2022/11/15 09:19:37;;;;;;;7.03;3.90;;;;;;;17.48;46.17;96956.50;5050852;28;20234;-72
2022/11/15 09:22:05;;;;;;;6.70;3.37;;;;;;;17.46;46.33;96954.03;5024458;28;20188;-73
2022/11/15 09:24:31;;;;;;;3.50;2.77;;;;;;;17.54;46.45;96960.19;5025921;28;20453;-73
2022/11/15 09:26:56;;;;;;;8.40;3.00;;;;;;;17.62;45.60;96958.16;5044079;28;20985;-72
2022/11/15 09:29:22;;;;;;;7.93;3.13;;;;;;;17.83;46.01;96958.16;5042337;28;20180;-72
2022/11/15 09:31:47;;;;;;;4.17;2.73;;;;;;;18.00;44.76;96953.28;5047669;28;20179;-73
2022/11/15 09:34:13;;;;;;;6.73;3.03;;;;;;;18.08;44.21;96958.34;5022577;28;20192;-71
2022/11/15 09:36:38;;;;;;;6.50;2.97;;;;;;;18.46;44.38;96947.03;5036508;28;20190;-72
2022/11/15 09:39:04;;;;;;;3.30;2.87;;;;;;;18.75;43.84;96950.22;5029689;28;20282;-72
2022/11/15 09:41:51;;;;;;;4.00;3.10;;;;;;;19.06;43.56;96951.28;5048335;28;20183;-73
2022/11/15 09:44:45;;;;;;;3.67;3.10;;;;;;;19.37;42.58;96957.66;5041183;28;20195;-71
2022/11/15 09:47:45;;;;;;;2.63;2.43;;;;;;;19.62;41.74;96941.72;5035841;28;20437;-73
2022/11/15 09:50:14;;;;;;;4.20;3.67;;;;;;;19.64;42.16;96934.34;5026985;28;20437;-73
2022/11/15 09:52:43;;;;;;;5.63;4.00;;;;;;;19.61;41.92;96933.97;5042236;28;20429;-74
2022/11/15 09:55:10;;;;;;;5.10;2.90;;;;;;;19.54;41.78;96936.69;5040779;28;20511;-71
2022/11/15 09:58:03;;;;;;;3.73;2.33;;;;;;;19.31;41.51;96931.94;5038675;28;20465;-72
2022/11/15 10:00:38;;;;;;;6.13;2.40;;;;;;;19.18;42.16;96932.84;5034934;28;20425;-73
2022/11/15 10:03:13;;;;;;;6.53;3.07;;;;;;;18.96;42.60;96924.41;5022195;28;20468;-72
2022/11/15 10:05:46;;;;;;;6.43;2.80;;;;;;;18.64;42.72;96927.78;5039229;28;20445;-72
2022/11/15 10:08:34;;;;;;;6.70;2.73;;;;;;;18.45;43.56;96929.50;5040844;28;20453;-72
2022/11/15 10:11:12;;;;;;;3.53;2.40;;;;;;;18.38;44.04;96924.22;5047072;28;20448;-73
2022/11/15 10:13:43;;;;;;;5.13;2.43;;;;;;;18.26;44.24;96921.41;5029502;28;20449;-73
2022/11/15 10:16:39;;;;;;;5.53;2.90;;;;;;;18.21;44.91;96918.53;5034068;28;20838;-72
2022/11/15 10:19:10;;;;;;;5.63;2.23;;;;;;;18.13;44.64;96920.59;5035590;28;20820;-72
2022/11/15 10:22:03;;;;;;;5.87;2.07;;;;;;;18.08;45.05;96908.78;5045138;28;20417;-72
2022/11/15 10:24:34;;;;;;;2.97;2.50;;;;;;;18.04;45.03;96906.75;5024666;28;20477;-72
2022/11/15 10:27:00;;;;;;;5.07;3.13;;;;;;;18.05;44.56;96903.06;5038475;28;20815;-71
2022/11/15 10:29:26;;;;;;;2.40;2.20;;;;;;;18.01;44.98;96912.47;5040657;28;20429;-72
2022/11/15 10:31:51;;;;;;;2.90;2.60;;;;;;;17.95;45.49;96904.28;5046172;28;20254;-72
2022/11/15 10:34:19;;;;;;;6.83;3.00;;;;;;;17.97;45.30;96896.16;5044704;28;20249;-72
2022/11/15 10:36:59;;;;;;;3.80;2.30;;;;;;;17.93;45.30;96901.03;5044032;28;20190;-72
2022/11/15 10:39:25;;;;;;;5.30;2.67;;;;;;;17.88;45.67;96897.38;5047879;28;20465;-72
2022/11/15 10:41:50;;;;;;;3.93;2.00;;;;;;;17.61;44.82;96892.94;5051066;28;20421;-72
2022/11/15 10:44:16;;;;;;;1.70;1.60;;;;;;;17.70;45.11;96888.22;5036049;28;20422;-73
2022/11/15 10:46:43;;;;;;;6.00;2.43;;;;;;;17.71;45.27;96892.47;5033062;28;20338;-73
2022/11/15 10:49:28;;;;;;;6.70;2.13;;;;;;;17.73;45.73;96885.16;5047061;28;20211;-71
2022/11/15 10:52:12;;;;;;;2.80;1.60;;;;;;;17.61;45.58;96877.03;5046322;28;20429;-72
2022/11/15 10:54:41;;;;;;;4.10;1.80;;;;;;;17.60;45.89;96877.22;5050008;28;20445;-73
2022/11/15 10:57:18;;;;;;;2.60;1.80;;;;;;;17.47;45.84;96872.75;5041809;28;20455;-73
2022/11/15 10:59:46;;;;;;;1.90;1.70;;;;;;;17.43;46.34;96880.28;5044128;28;20451;-74
2022/11/15 11:02:27;;;;;;;4.20;2.23;;;;;;;17.43;46.64;96874.16;5048415;28;20456;-72
2022/11/15 11:04:52;;;;;;;4.23;2.27;;;;;;;17.46;46.62;96876.41;5046396;28;20852;-71
2022/11/15 11:07:36;;;;;;;5.10;2.00;;;;;;;17.46;46.98;96871.13;5048309;28;20472;-72
2022/11/15 11:10:20;;;;;;;12.03;2.37;;;;;;;17.39;47.08;96871.13;5030614;28;20188;-72
2022/11/15 11:12:46;;;;;;;2.40;1.70;;;;;;;17.33;47.04;96880.69;5022689;28;20429;-73
2022/11/15 11:15:14;;;;;;;3.00;1.73;;;;;;;17.35;47.24;96873.38;5030478;28;20454;-72
2022/11/15 11:17:51;;;;;;;5.20;1.97;;;;;;;17.28;47.57;96871.72;5044907;28;20207;-71
2022/11/15 11:20:30;;;;;;;20.57;2.70;;;;;;;17.26;47.46;96864.00;5049168;28;20460;-72
2022/11/15 11:23:04;;;;;;;2.27;1.73;;;;;;;17.34;47.42;96855.00;5029821;28;20429;-72
2022/11/15 11:25:44;;;;;;;2.63;2.00;;;;;;;17.35;48.07;96860.13;5033354;28;20433;-72
2022/11/15 11:28:09;;;;;;;6.90;1.77;;;;;;;17.33;48.20;96863.97;5047316;28;20524;-72
2022/11/15 11:31:12;;;;;;;6.33;2.17;;;;;;;17.39;48.10;96862.38;5043065;28;20521;-72
2022/11/15 11:33:41;;;;;;;6.90;2.00;;;;;;;17.33;48.24;96851.56;5046197;28;20715;-72
2022/11/15 11:36:32;;;;;;;3.70;2.33;;;;;;;17.42;48.15;96851.34;5048918;28;20452;-71
2022/11/15 11:39:00;;;;;;;6.73;2.47;;;;;;;17.43;48.20;96845.03;5044282;28;20470;-73
2022/11/15 11:41:44;;;;;;;4.77;2.40;;;;;;;17.48;48.53;96834.66;5035785;28;20425;-73
2022/11/15 11:44:17;;;;;;;4.03;2.20;;;;;;;17.56;48.24;96825.69;5043972;28;20411;-72
2022/11/15 11:46:55;;;;;;;3.40;2.40;;;;;;;17.64;48.21;96823.59;5032194;28;20426;-73
2022/11/15 11:49:23;;;;;;;3.83;2.50;;;;;;;17.64;48.30;96823.59;5046699;28;20504;-72
2022/11/15 11:52:00;;;;;;;6.23;2.10;;;;;;;17.67;47.93;96811.78;5037350;28;20423;-72
2022/11/15 11:54:38;;;;;;;4.30;2.37;;;;;;;17.73;48.05;96805.66;5048821;28;20444;-73
2022/11/15 11:57:09;;;;;;;3.30;2.30;;;;;;;17.85;48.18;96818.25;5045121;28;20426;-73